Nuuk City

KL  EN  DA
ASIAQ
Weather Now GREENLAND SURVEY
Updated [WGT/WGST] Temperature [°C] Wind [m/s] Air pressure [hPa] Relative humidity [%] Precipitation [mm]
Present Wind chill Speed Max
25.02 08:00n/an/an/an/an/an/an/a
25.02 07:00-11,1-17,93,9 ⇓7,1100353n/a
25.02 06:00-11,6-18,33,7 ⇓6,4100359n/a
25.02 05:00-12,0-17,52,6 ⇓4,8100457n/a
25.02 04:00-11,7-14,81,4 ⇓2,5100467n/a
25.02 03:00-12,0-16,31,9 ⇓3,5100476n/a
25.02 02:00-12,1-17,12,4 ⇓4,3100472n/a
25.02 01:00-12,6-16,61,7 ⇓2,8100572n/a
25.02 00:00-12,2-16,62,0 ⇓3,5100568n/a
24.02 23:00-11,9-17,83,0 ⇓5,31005630,0
24.02 22:00-11,9-19,44,5 ⇓7,91004650,0
24.02 21:00-11,7-19,24,7 ⇓7,81004610,0
24.02 20:00-11,6-19,34,8 ⇓8,41003620,0
24.02 19:00-11,2-18,84,9 ⇓9,31002580,0
24.02 18:00-11,1-18,85,0 ⇓8,01001580,0
24.02 17:00-11,1-19,05,4 ⇓8,91001590,0
24.02 16:00-11,2-20,16,7 ⇓9,91000600,0
24.02 15:00-10,9-19,56,3 ⇓10,2999670,0
24.02 14:00-10,3-19,16,8 ⇓9,9997650,0
24.02 13:00-9,9-18,56,8 ⇓11,1996640,0
24.02 12:00-9,9-19,07,7 ⇓12,0995660,0
24.02 11:00-9,8-19,48,6 ⇓13,0993710,0
24.02 10:00-10,2-20,19,0 ⇓14,2993850,0
24.02 09:00-9,8-19,89,6 ⇓13,699286n/a
24.02 08:00-9,7-19,08,2 ⇓13,799188n/a
Position: (64.17955556,-51.72608333)

[Back]